createdAt,value
2023-04-19T00:01:50.726Z,14.29
2023-04-19T00:03:52.531Z,14.25
2023-04-19T00:05:54.391Z,14.13
2023-04-19T00:07:55.993Z,14.18
2023-04-19T00:09:57.560Z,14.21
2023-04-19T00:12:00.768Z,14.29
2023-04-19T00:14:02.446Z,14.32
2023-04-19T00:16:06.573Z,14.26
2023-04-19T00:18:08.204Z,14.34
2023-04-19T00:20:10.944Z,14.31
2023-04-19T00:22:12.450Z,14.40
2023-04-19T00:24:14.234Z,14.38
2023-04-19T00:26:15.971Z,14.37
2023-04-19T00:28:17.544Z,14.43
2023-04-19T00:30:19.504Z,14.39
2023-04-19T00:32:22.675Z,14.35
2023-04-19T00:34:24.405Z,14.45
2023-04-19T00:36:25.979Z,14.53
2023-04-19T00:38:27.560Z,14.61
2023-04-19T00:40:29.247Z,14.52
2023-04-19T00:42:30.927Z,14.27
2023-04-19T00:44:32.579Z,14.17
2023-04-19T00:46:34.590Z,14.15
2023-04-19T00:48:37.696Z,14.14
2023-04-19T00:50:39.497Z,14.19
2023-04-19T00:52:41.524Z,14.11
2023-04-19T00:54:45.158Z,14.09
2023-04-19T00:56:46.953Z,14.16
2023-04-19T00:58:48.947Z,14.25
2023-04-19T01:00:50.467Z,14.26
2023-04-19T01:02:52.112Z,14.15
2023-04-19T01:04:55.188Z,14.16
2023-04-19T01:06:56.766Z,14.16
2023-04-19T01:08:58.334Z,14.21
2023-04-19T01:10:59.862Z,14.22
2023-04-19T01:13:01.400Z,14.21
2023-04-19T01:15:03.221Z,14.15
2023-04-19T01:17:04.942Z,14.09
2023-04-19T01:19:06.580Z,14.17
2023-04-19T01:21:09.508Z,14.22
2023-04-19T01:23:12.337Z,14.23
2023-04-19T01:25:13.923Z,14.29
2023-04-19T01:27:15.635Z,14.24
2023-04-19T01:29:17.149Z,14.25
2023-04-19T01:31:18.700Z,14.08
2023-04-19T01:33:20.435Z,14.01
2023-04-19T01:35:22.003Z,14.09
2023-04-19T01:37:23.582Z,14.08
2023-04-19T01:39:26.955Z,14.12
2023-04-19T01:41:28.443Z,14.19
2023-04-19T01:43:30.081Z,14.26
2023-04-19T01:45:31.721Z,14.23
2023-04-19T01:47:33.248Z,14.28
2023-04-19T01:49:34.884Z,14.16
2023-04-19T01:51:37.769Z,14.15
2023-04-19T01:53:39.282Z,14.17
2023-04-19T01:55:42.571Z,14.11
2023-04-19T01:57:44.211Z,14.17
2023-04-19T01:59:45.899Z,14.12
2023-04-19T02:01:47.628Z,14.06
2023-04-19T02:03:49.268Z,14.06
2023-04-19T02:05:50.998Z,14.04
2023-04-19T02:07:52.547Z,14.05
2023-04-19T02:09:54.085Z,14.04
2023-04-19T02:11:56.986Z,13.99
2023-04-19T02:13:58.539Z,13.98
2023-04-19T02:16:00.296Z,14.01
2023-04-19T02:18:01.896Z,14.00
2023-04-19T02:20:04.241Z,13.91
2023-04-19T02:22:05.755Z,13.96
2023-04-19T02:24:09.072Z,14.00
2023-04-19T02:26:11.036Z,14.03
2023-04-19T02:28:14.069Z,14.06
2023-04-19T02:30:15.883Z,13.96
2023-04-19T02:32:17.453Z,13.95
2023-04-19T02:34:19.005Z,13.99
2023-04-19T02:36:20.603Z,14.04
2023-04-19T02:38:22.214Z,14.00
2023-04-19T02:40:24.200Z,14.06
2023-04-19T02:42:25.832Z,13.98
2023-04-19T02:44:28.847Z,14.00
2023-04-19T02:46:30.479Z,14.03
2023-04-19T02:48:32.170Z,13.96
2023-04-19T02:50:36.790Z,13.99
2023-04-19T02:52:38.443Z,13.98
2023-04-19T02:54:40.052Z,14.01
2023-04-19T02:56:41.636Z,13.95
2023-04-19T02:58:43.164Z,13.88
2023-04-19T03:00:46.092Z,13.84
2023-04-19T03:02:47.722Z,13.85
2023-04-19T03:04:49.265Z,13.98
2023-04-19T03:06:52.085Z,14.01
2023-04-19T03:08:53.651Z,14.04
2023-04-19T03:10:55.294Z,14.11
2023-04-19T03:12:56.870Z,14.15
2023-04-19T03:14:58.517Z,14.13
2023-04-19T03:17:01.622Z,14.15
2023-04-19T03:19:03.211Z,14.17
2023-04-19T03:21:04.925Z,14.21
2023-04-19T03:23:06.522Z,14.19
2023-04-19T03:25:09.060Z,14.19
2023-04-19T03:27:10.608Z,14.20
2023-04-19T03:29:13.342Z,14.22
2023-04-19T03:31:15.155Z,14.25
2023-04-19T03:33:18.067Z,14.28
2023-04-19T03:35:19.576Z,14.30
2023-04-19T03:37:21.132Z,14.24
2023-04-19T03:39:22.679Z,14.22
2023-04-19T03:41:25.605Z,14.23
2023-04-19T03:43:27.152Z,14.24
2023-04-19T03:45:30.019Z,14.24
2023-04-19T03:47:31.574Z,14.23
2023-04-19T03:49:34.431Z,14.25
2023-04-19T03:51:36.041Z,14.30
2023-04-19T03:53:37.572Z,14.28
2023-04-19T03:55:39.115Z,14.24
2023-04-19T03:57:40.746Z,14.26
2023-04-19T03:59:42.217Z,14.26
2023-04-19T04:01:43.776Z,14.28
2023-04-19T04:03:45.560Z,14.25
2023-04-19T04:05:48.792Z,14.29
2023-04-19T04:07:50.292Z,14.30
2023-04-19T04:09:51.835Z,14.32
2023-04-19T04:11:53.376Z,14.28
2023-04-19T04:13:55.951Z,14.28
2023-04-19T04:15:57.620Z,14.24
2023-04-19T04:18:00.449Z,14.23
2023-04-19T04:20:02.164Z,14.19
2023-04-19T04:22:05.121Z,14.20
2023-04-19T04:24:07.309Z,14.14
2023-04-19T04:26:08.858Z,14.09
2023-04-19T04:28:10.407Z,13.95
2023-04-19T04:30:12.442Z,13.97
2023-04-19T04:32:13.992Z,13.81
2023-04-19T04:34:15.721Z,13.77
2023-04-19T04:36:17.430Z,13.76
2023-04-19T04:38:24.544Z,13.73
2023-04-19T04:40:26.743Z,13.70
2023-04-19T04:42:28.264Z,13.60
2023-04-19T04:44:29.800Z,13.66
2023-04-19T04:46:31.356Z,13.63
2023-04-19T04:48:32.845Z,13.67
2023-04-19T04:50:34.401Z,13.71
2023-04-19T04:52:35.955Z,13.75
2023-04-19T04:54:38.831Z,13.72
2023-04-19T04:56:40.413Z,13.79
2023-04-19T04:58:42.084Z,13.83
2023-04-19T05:00:43.761Z,13.84
2023-04-19T05:02:45.516Z,13.86
2023-04-19T05:04:47.105Z,13.84
2023-04-19T05:06:48.778Z,13.86
2023-04-19T05:08:50.384Z,13.87
2023-04-19T05:10:53.349Z,13.89
2023-04-19T05:12:54.973Z,13.89
2023-04-19T05:14:56.657Z,13.88
2023-04-19T05:16:58.202Z,13.89
2023-04-19T05:18:59.799Z,13.93
2023-04-19T05:21:01.422Z,13.92
2023-04-19T05:23:02.962Z,13.97
2023-04-19T05:25:05.767Z,13.93
2023-04-19T05:27:08.733Z,13.99
2023-04-19T05:29:10.338Z,13.96
2023-04-19T05:31:12.243Z,14.03
2023-04-19T05:33:13.801Z,14.00
2023-04-19T05:35:15.590Z,14.07
2023-04-19T05:37:17.159Z,13.99
2023-04-19T05:39:18.783Z,14.01
2023-04-19T05:41:20.547Z,14.04
2023-04-19T05:43:23.492Z,14.07
2023-04-19T05:45:25.781Z,14.03
2023-04-19T05:47:27.414Z,14.02
2023-04-19T05:49:29.011Z,13.99
2023-04-19T05:51:30.539Z,14.00
2023-04-19T05:53:32.154Z,13.97
2023-04-19T05:55:33.696Z,14.00
2023-04-19T05:57:35.304Z,14.00
2023-04-19T05:59:38.333Z,14.02
2023-04-19T06:01:39.901Z,14.08
2023-04-19T06:03:41.797Z,14.08
2023-04-19T06:05:43.697Z,14.11
2023-04-19T06:07:54.472Z,14.12
2023-04-19T06:09:57.083Z,14.14
2023-04-19T06:11:58.944Z,14.19
2023-04-19T06:14:00.516Z,14.34
2023-04-19T06:16:04.243Z,14.44
2023-04-19T06:18:06.040Z,14.49
2023-04-19T06:20:08.884Z,14.49
2023-04-19T06:22:10.417Z,14.53
2023-04-19T06:24:12.199Z,14.56
2023-04-19T06:26:13.886Z,14.57
2023-04-19T06:28:15.556Z,14.57
2023-04-19T06:30:17.966Z,14.56
2023-04-19T06:32:20.914Z,14.66
2023-04-19T06:34:22.956Z,14.78
2023-04-19T06:36:24.486Z,14.85
2023-04-19T06:38:26.046Z,14.98
2023-04-19T06:40:28.143Z,15.05
2023-04-19T06:42:29.746Z,15.14
2023-04-19T06:44:31.355Z,15.21
2023-04-19T06:46:35.752Z,15.29
2023-04-19T06:48:38.653Z,15.35
2023-04-19T06:50:40.579Z,15.44
2023-04-19T06:52:42.393Z,15.55
2023-04-19T06:54:47.658Z,15.62
2023-04-19T06:56:49.981Z,15.64
2023-04-19T06:58:51.446Z,15.65
2023-04-19T07:00:53.111Z,15.62
2023-04-19T07:02:54.950Z,15.58
2023-04-19T07:04:57.972Z,15.57
2023-04-19T07:06:59.531Z,15.59
2023-04-19T07:09:01.140Z,15.61
2023-04-19T07:11:02.674Z,15.63
2023-04-19T07:13:04.452Z,15.72
2023-04-19T07:15:06.834Z,15.79
2023-04-19T07:17:08.523Z,15.90
2023-04-19T07:19:10.119Z,16.11
2023-04-19T07:21:12.951Z,16.16
2023-04-19T07:23:15.411Z,16.13
2023-04-19T07:25:17.098Z,16.06
2023-04-19T07:27:18.590Z,15.89
2023-04-19T07:29:20.221Z,15.85
2023-04-19T07:31:21.936Z,15.86
2023-04-19T07:33:25.955Z,15.80
2023-04-19T07:35:29.497Z,15.74
2023-04-19T07:37:32.793Z,15.63
2023-04-19T07:39:34.457Z,15.44
2023-04-19T07:41:36.419Z,15.31
2023-04-19T07:43:39.280Z,15.31
2023-04-19T07:45:41.517Z,15.22
2023-04-19T07:47:43.080Z,15.18
2023-04-19T07:49:44.733Z,15.21
2023-04-19T07:51:46.497Z,15.20
2023-04-19T07:53:49.427Z,15.21
2023-04-19T07:55:51.033Z,15.21
2023-04-19T07:57:52.645Z,15.22
2023-04-19T07:59:54.206Z,15.29
2023-04-19T08:01:55.911Z,15.32
2023-04-19T08:03:57.700Z,15.29
2023-04-19T08:06:00.821Z,15.28
2023-04-19T08:08:02.479Z,15.26
2023-04-19T08:10:07.264Z,15.27
2023-04-19T08:12:09.285Z,15.24
2023-04-19T08:14:22.154Z,15.26
2023-04-19T08:17:14.700Z,15.30
2023-04-19T08:18:53.912Z,15.41
2023-04-19T08:20:55.510Z,15.43
2023-04-19T08:22:59.071Z,15.48
2023-04-19T08:25:02.366Z,15.49
2023-04-19T08:27:05.387Z,15.50
2023-04-19T08:29:07.020Z,15.55
2023-04-19T08:31:09.001Z,15.60
2023-04-19T08:33:10.748Z,15.65
2023-04-19T08:35:13.334Z,15.79
2023-04-19T08:37:14.896Z,15.93
2023-04-19T08:39:29.139Z,16.04
2023-04-19T08:41:34.726Z,15.99
2023-04-19T08:43:39.920Z,15.96
2023-04-19T08:45:43.257Z,16.12
2023-04-19T08:47:58.957Z,16.28
2023-04-19T08:50:17.444Z,16.39
2023-04-19T08:52:28.056Z,16.38
2023-04-19T08:54:29.987Z,16.28
2023-04-19T08:56:35.783Z,16.32
2023-04-19T08:58:56.836Z,16.46
2023-04-19T09:01:00.836Z,16.26
2023-04-19T09:03:02.677Z,16.27
2023-04-19T09:05:05.485Z,16.31
2023-04-19T09:07:07.202Z,16.44
2023-04-19T09:11:21.582Z,16.54
2023-04-19T09:13:24.228Z,16.60
2023-04-19T09:15:36.417Z,16.70
2023-04-19T09:17:41.062Z,16.76
2023-04-19T09:19:46.520Z,16.79
2023-04-19T09:21:48.198Z,16.85
2023-04-19T09:23:49.776Z,16.87
2023-04-19T09:28:09.261Z,17.07
2023-04-19T09:30:20.766Z,17.05
2023-04-19T09:32:24.464Z,17.17
2023-04-19T09:34:26.266Z,17.18
2023-04-19T09:36:29.187Z,17.14
2023-04-19T09:38:30.944Z,17.19
2023-04-19T09:40:32.520Z,17.21
2023-04-19T09:43:05.472Z,17.24
2023-04-19T09:47:22.768Z,17.20
2023-04-19T09:49:37.534Z,17.23
2023-04-19T09:51:48.794Z,17.31
2023-04-19T09:53:50.575Z,17.23
2023-04-19T09:56:01.514Z,17.15
2023-04-19T09:58:04.078Z,17.23
2023-04-19T10:00:06.974Z,17.40
2023-04-19T10:02:12.109Z,17.56
2023-04-19T10:08:28.709Z,17.65
2023-04-19T10:10:42.118Z,17.58
2023-04-19T10:13:11.043Z,17.56
2023-04-19T10:15:13.389Z,17.57
2023-04-19T10:17:16.165Z,17.63
2023-04-19T10:19:19.039Z,17.69
2023-04-19T10:21:21.266Z,17.69
2023-04-19T10:23:24.861Z,17.77
2023-04-19T10:25:29.542Z,17.65
2023-04-19T10:27:34.810Z,17.73
2023-04-19T10:29:55.884Z,17.76
2023-04-19T10:31:58.566Z,17.69
2023-04-19T10:34:00.291Z,17.61
2023-04-19T10:36:02.381Z,17.56
2023-04-19T10:38:06.621Z,17.64
2023-04-19T10:40:10.388Z,17.61
2023-04-19T10:42:11.910Z,17.56
2023-04-19T10:44:13.897Z,17.54
2023-04-19T10:46:35.894Z,17.60
2023-04-19T10:48:49.673Z,17.61
2023-04-19T10:51:01.493Z,17.62
2023-04-19T10:53:36.271Z,17.64
2023-04-19T10:55:50.237Z,17.50
2023-04-19T10:58:01.618Z,17.60
2023-04-19T11:00:19.538Z,17.73
2023-04-19T11:02:28.487Z,17.69
2023-04-19T11:05:09.700Z,17.66
2023-04-19T11:07:11.281Z,17.60
2023-04-19T11:09:22.198Z,17.49
2023-04-19T11:11:26.062Z,17.36
2023-04-19T11:13:27.793Z,17.41
2023-04-19T11:15:31.891Z,17.39
2023-04-19T11:17:33.818Z,17.39
2023-04-19T11:19:35.538Z,17.31
2023-04-19T11:21:40.308Z,17.30
2023-04-19T11:23:41.854Z,17.33
2023-04-19T11:25:46.021Z,17.33
2023-04-19T11:27:51.417Z,17.37
2023-04-19T11:29:54.108Z,17.39
2023-04-19T11:31:55.724Z,17.26
2023-04-19T11:33:58.824Z,17.19
2023-04-19T11:36:00.410Z,17.25
2023-04-19T11:38:03.038Z,17.24
2023-04-19T11:40:06.902Z,17.20
2023-04-19T11:42:17.345Z,17.27
2023-04-19T11:44:20.513Z,17.33
2023-04-19T11:46:23.526Z,17.40
2023-04-19T11:48:25.060Z,17.41
2023-04-19T11:50:34.842Z,17.49
2023-04-19T11:52:36.394Z,17.58
2023-04-19T11:54:38.035Z,17.67
2023-04-19T11:57:01.302Z,17.70
2023-04-19T11:59:02.888Z,17.64
2023-04-19T12:01:08.552Z,17.68
2023-04-19T12:03:10.442Z,17.80
2023-04-19T12:05:14.457Z,17.95
2023-04-19T12:07:16.437Z,18.22
2023-04-19T12:09:22.841Z,18.46
2023-04-19T12:11:41.388Z,18.96
2023-04-19T12:13:42.994Z,19.34
2023-04-19T12:15:46.199Z,19.70
2023-04-19T12:17:59.775Z,19.83
2023-04-19T12:20:01.389Z,20.25
2023-04-19T12:22:11.114Z,20.64
2023-04-19T12:24:15.853Z,20.94
2023-04-19T12:26:17.395Z,21.65
2023-04-19T12:28:18.971Z,21.97
2023-04-19T12:30:20.530Z,22.00
2023-04-19T12:32:22.266Z,22.43
2023-04-19T12:34:25.479Z,22.72
2023-04-19T12:36:27.284Z,23.26
2023-04-19T12:38:28.861Z,23.79
2023-04-19T12:40:30.716Z,23.82
2023-04-19T12:42:32.305Z,23.86
2023-04-19T12:44:33.856Z,24.03
2023-04-19T12:46:35.926Z,24.29
2023-04-19T12:48:37.518Z,24.40
2023-04-19T12:50:40.448Z,24.62
2023-04-19T12:52:42.654Z,24.64
2023-04-19T12:54:44.235Z,24.58
2023-04-19T12:56:45.808Z,24.25
2023-04-19T12:58:47.412Z,23.99
2023-04-19T13:00:49.792Z,23.79
2023-04-19T13:02:51.520Z,23.37
2023-04-19T13:04:53.402Z,23.22
2023-04-19T13:06:56.545Z,23.10
2023-04-19T13:09:01.205Z,22.95
2023-04-19T13:11:03.382Z,22.80
2023-04-19T13:13:04.997Z,22.68
2023-04-19T13:15:08.022Z,22.58
2023-04-19T13:17:09.689Z,22.63
2023-04-19T13:19:11.394Z,22.59
2023-04-19T13:21:13.005Z,22.39
2023-04-19T13:23:15.950Z,22.18
2023-04-19T13:25:17.524Z,21.99
2023-04-19T13:27:19.090Z,21.87
2023-04-19T13:29:20.700Z,21.55
2023-04-19T13:31:22.317Z,21.11
2023-04-19T13:33:23.870Z,21.10
2023-04-19T13:35:25.562Z,21.09
2023-04-19T13:37:27.159Z,21.08
2023-04-19T13:39:30.149Z,22.19
2023-04-19T13:41:31.766Z,23.12
2023-04-19T13:43:33.290Z,23.80
2023-04-19T13:45:34.847Z,24.02
2023-04-19T13:47:36.454Z,23.48
2023-04-19T13:49:38.388Z,22.82
2023-04-19T13:51:49.700Z,22.49
2023-04-19T13:53:52.137Z,22.29
2023-04-19T13:55:55.816Z,21.77
2023-04-19T13:57:57.383Z,21.57
2023-04-19T13:59:58.957Z,21.44
2023-04-19T14:02:02.908Z,20.90
2023-04-19T14:04:05.110Z,20.69
2023-04-19T14:06:07.167Z,20.52
2023-04-19T14:08:08.809Z,20.48
2023-04-19T14:10:10.969Z,20.34
2023-04-19T14:12:13.991Z,20.33
2023-04-19T14:14:15.815Z,20.37
2023-04-19T14:16:17.489Z,20.51
2023-04-19T14:18:19.160Z,20.56
2023-04-19T14:20:20.833Z,20.39
2023-04-19T14:22:24.489Z,20.38
2023-04-19T14:24:26.087Z,20.33
2023-04-19T14:26:27.834Z,20.29
2023-04-19T14:28:30.833Z,20.27
2023-04-19T14:30:32.502Z,20.24
2023-04-19T14:32:34.259Z,20.33
2023-04-19T14:34:38.144Z,20.43
2023-04-19T14:36:40.350Z,20.16
2023-04-19T14:38:41.878Z,20.14
2023-04-19T14:40:43.542Z,20.35
2023-04-19T14:42:45.113Z,20.41
2023-04-19T14:44:49.695Z,20.00
2023-04-19T14:46:51.574Z,19.81
2023-04-19T14:48:53.146Z,19.71
2023-04-19T14:50:55.646Z,19.73
2023-04-19T14:52:57.232Z,19.59
2023-04-19T14:54:58.826Z,19.67
2023-04-19T14:57:00.531Z,19.62
2023-04-19T14:59:02.086Z,19.39
2023-04-19T15:01:12.284Z,19.50
2023-04-19T15:03:14.059Z,19.61
2023-04-19T15:05:15.864Z,19.62
2023-04-19T15:07:17.649Z,19.44
2023-04-19T15:09:19.227Z,19.31
2023-04-19T15:11:20.867Z,19.40
2023-04-19T15:13:22.644Z,19.34
2023-04-19T15:15:24.262Z,19.42
2023-04-19T15:17:27.308Z,19.54
2023-04-19T15:19:30.544Z,19.42
2023-04-19T15:21:32.080Z,19.37
2023-04-19T15:23:33.651Z,19.31
2023-04-19T15:25:35.291Z,19.35
2023-04-19T15:27:37.276Z,19.30
2023-04-19T15:29:38.823Z,19.16
2023-04-19T15:31:40.419Z,18.89
2023-04-19T15:33:43.765Z,18.90
2023-04-19T15:35:45.276Z,18.92
2023-04-19T15:37:47.398Z,18.86
2023-04-19T15:39:48.980Z,18.76
2023-04-19T15:41:50.814Z,18.79
2023-04-19T15:43:52.808Z,18.99
2023-04-19T15:45:54.508Z,18.96
2023-04-19T15:47:56.082Z,19.00
2023-04-19T15:50:00.008Z,19.04
2023-04-19T15:52:01.579Z,18.88
2023-04-19T15:54:03.200Z,18.77
2023-04-19T15:56:05.924Z,18.88
2023-04-19T15:58:07.505Z,18.76
2023-04-19T16:00:10.177Z,18.64
2023-04-19T16:02:11.865Z,18.61
2023-04-19T16:04:13.904Z,18.58
2023-04-19T16:06:17.114Z,18.43
2023-04-19T16:08:19.263Z,18.35
2023-04-19T16:10:20.810Z,18.34
2023-04-19T16:12:22.402Z,18.29
2023-04-19T16:14:24.171Z,18.29
2023-04-19T16:16:25.784Z,18.29
2023-04-19T16:18:27.424Z,18.30
2023-04-19T16:20:29.069Z,18.21
2023-04-19T16:22:32.070Z,18.24
2023-04-19T16:24:33.634Z,17.98
2023-04-19T16:26:35.217Z,18.01
2023-04-19T16:28:36.769Z,17.99
2023-04-19T16:30:38.325Z,17.86
2023-04-19T16:32:40.681Z,17.68
2023-04-19T16:34:42.641Z,17.67
2023-04-19T16:36:44.218Z,17.74
2023-04-19T16:38:47.252Z,17.71
2023-04-19T16:40:49.107Z,17.83
2023-04-19T16:42:50.779Z,17.79
2023-04-19T16:44:52.503Z,17.37
2023-04-19T16:46:54.074Z,17.30
2023-04-19T16:48:55.833Z,17.41
2023-04-19T16:50:57.456Z,17.50
2023-04-19T16:52:58.996Z,17.59
2023-04-19T16:55:02.042Z,17.57
2023-04-19T16:57:03.898Z,17.58
2023-04-19T16:59:05.451Z,17.60
2023-04-19T17:01:07.029Z,17.46
2023-04-19T17:03:08.749Z,17.49
2023-04-19T17:05:10.562Z,17.36
2023-04-19T17:07:12.437Z,17.39
2023-04-19T17:09:14.176Z,17.47
2023-04-19T17:11:17.175Z,17.45
2023-04-19T17:13:18.769Z,17.20
2023-04-19T17:15:20.391Z,17.13
2023-04-19T17:17:21.954Z,17.10
2023-04-19T17:19:23.496Z,16.94
2023-04-19T17:21:25.080Z,16.79
2023-04-19T17:23:26.673Z,16.72
2023-04-19T17:25:28.416Z,16.80
2023-04-19T17:27:31.391Z,16.93
2023-04-19T17:29:33.177Z,16.70
2023-04-19T17:31:34.831Z,16.63
2023-04-19T17:33:36.534Z,16.62
2023-04-19T17:35:38.100Z,16.51
2023-04-19T17:37:39.670Z,16.61
2023-04-19T17:39:41.276Z,16.44
2023-04-19T17:41:42.840Z,16.56
2023-04-19T17:43:46.587Z,16.59
2023-04-19T17:45:48.224Z,16.40
2023-04-19T17:47:49.835Z,16.31
2023-04-19T17:49:51.605Z,16.35
2023-04-19T17:51:54.889Z,16.26
2023-04-19T17:53:56.513Z,16.12
2023-04-19T17:55:58.134Z,16.23
2023-04-19T17:57:59.742Z,16.13
2023-04-19T18:00:03.209Z,16.07
2023-04-19T18:02:04.879Z,16.04
2023-04-19T18:04:06.721Z,15.90
2023-04-19T18:06:08.724Z,15.87
2023-04-19T18:08:10.314Z,15.81
2023-04-19T18:10:11.987Z,15.81
2023-04-19T18:12:13.589Z,15.87
2023-04-19T18:14:15.117Z,15.97
2023-04-19T18:16:18.040Z,16.09
2023-04-19T18:18:19.626Z,16.09
2023-04-19T18:20:21.430Z,16.09
2023-04-19T18:22:23.059Z,16.10
2023-04-19T18:24:24.749Z,16.17
2023-04-19T18:26:36.269Z,16.18
2023-04-19T18:28:38.910Z,16.27
2023-04-19T18:30:40.561Z,16.23
2023-04-19T18:32:43.482Z,16.19
2023-04-19T18:34:45.194Z,16.00
2023-04-19T18:36:46.774Z,16.00
2023-04-19T18:38:48.290Z,15.99
2023-04-19T18:40:50.323Z,16.16
2023-04-19T18:42:51.933Z,16.22
2023-04-19T18:44:54.600Z,16.18
2023-04-19T18:46:56.497Z,16.16
2023-04-19T18:48:59.454Z,16.14
2023-04-19T18:51:01.043Z,16.16
2023-04-19T18:53:02.592Z,16.11
2023-04-19T18:55:05.010Z,16.19
2023-04-19T18:57:22.778Z,16.12
2023-04-19T18:59:25.038Z,16.26
2023-04-19T19:01:26.621Z,16.19
2023-04-19T19:05:34.041Z,16.13
2023-04-19T19:07:37.079Z,16.16
2023-04-19T19:09:39.258Z,16.21
2023-04-19T19:11:55.229Z,16.14
2023-04-19T19:13:57.946Z,16.00
2023-04-19T19:15:59.611Z,15.98
2023-04-19T19:18:01.341Z,16.01
2023-04-19T19:20:03.380Z,15.99
2023-04-19T19:22:18.192Z,15.97
2023-04-19T19:24:27.239Z,15.89
2023-04-19T19:26:28.769Z,15.86
2023-04-19T19:28:30.450Z,15.79
2023-04-19T19:30:32.041Z,15.80
2023-04-19T19:32:33.838Z,15.74
2023-04-19T19:34:47.098Z,15.70
2023-04-19T19:36:55.899Z,15.68
2023-04-19T19:38:58.830Z,15.58
2023-04-19T19:41:41.739Z,15.51
2023-04-19T19:43:21.950Z,15.43
2023-04-19T19:45:27.184Z,15.43
2023-04-19T19:47:28.872Z,15.45
2023-04-19T19:49:42.078Z,15.40
2023-04-19T19:51:58.470Z,15.40
2023-04-19T19:54:02.584Z,15.36
2023-04-19T19:56:08.658Z,15.31
2023-04-19T19:58:45.892Z,15.19
2023-04-19T20:00:46.136Z,15.12
2023-04-19T20:04:54.273Z,15.22
2023-04-19T20:09:01.867Z,15.10
2023-04-19T20:11:03.532Z,15.09
2023-04-19T20:13:05.186Z,14.94
2023-04-19T20:15:07.721Z,14.98
2023-04-19T20:17:09.223Z,14.95
2023-04-19T20:19:10.732Z,14.91
2023-04-19T20:21:12.524Z,14.86
2023-04-19T20:23:15.172Z,14.88
2023-04-19T20:25:18.119Z,14.90
2023-04-19T20:27:19.717Z,14.83
2023-04-19T20:29:21.239Z,14.80
2023-04-19T20:31:24.096Z,14.81
2023-04-19T20:33:25.974Z,14.85
2023-04-19T20:35:27.899Z,14.83
2023-04-19T20:37:29.382Z,14.83
2023-04-19T20:39:30.966Z,14.76
2023-04-19T20:41:33.949Z,14.74
2023-04-19T20:43:35.468Z,14.74
2023-04-19T20:45:37.084Z,14.73
2023-04-19T20:47:38.827Z,14.69
2023-04-19T20:49:40.503Z,14.65
2023-04-19T20:51:42.105Z,14.66
2023-04-19T20:53:43.661Z,14.66
2023-04-19T20:55:45.177Z,14.67
2023-04-19T20:57:48.247Z,14.75
2023-04-19T20:59:50.353Z,14.67
2023-04-19T21:01:51.947Z,14.61
2023-04-19T21:03:53.802Z,14.60
2023-04-19T21:05:55.555Z,14.56
2023-04-19T21:07:57.135Z,14.55
2023-04-19T21:09:58.659Z,14.50
2023-04-19T21:12:00.251Z,14.48
2023-04-19T21:14:03.195Z,14.44
2023-04-19T21:16:05.313Z,14.40
2023-04-19T21:18:06.981Z,14.36
2023-04-19T21:20:09.602Z,14.38
2023-04-19T21:22:11.204Z,14.36
2023-04-19T21:24:12.757Z,14.31
2023-04-19T21:26:14.299Z,14.38
2023-04-19T21:28:15.919Z,14.41
2023-04-19T21:30:19.290Z,14.40
2023-04-19T21:32:21.614Z,14.44
2023-04-19T21:34:23.178Z,14.39
2023-04-19T21:36:24.703Z,14.38
2023-04-19T21:38:26.308Z,14.34
2023-04-19T21:40:27.932Z,14.28
2023-04-19T21:42:29.623Z,14.18
2023-04-19T21:44:31.185Z,14.12
2023-04-19T21:46:34.235Z,14.09
2023-04-19T21:48:35.805Z,14.09
2023-04-19T21:50:37.492Z,14.11
2023-04-19T21:52:39.098Z,14.07
2023-04-19T21:54:40.650Z,14.04
2023-04-19T21:56:42.144Z,13.92
2023-04-19T21:58:43.731Z,13.86
2023-04-19T22:00:45.631Z,13.79
2023-04-19T22:02:48.658Z,13.78
2023-04-19T22:04:50.280Z,13.76
2023-04-19T22:06:51.896Z,13.81
2023-04-19T22:08:53.428Z,13.81
2023-04-19T22:10:55.829Z,13.80
2023-04-19T22:12:58.873Z,13.81
2023-04-19T22:15:00.974Z,13.77
2023-04-19T22:17:02.929Z,13.63
2023-04-19T22:19:05.962Z,13.54
2023-04-19T22:21:07.580Z,13.48
2023-04-19T22:23:09.232Z,13.39
2023-04-19T22:25:10.853Z,13.41
2023-04-19T22:27:12.497Z,13.51
2023-04-19T22:29:14.069Z,13.45
2023-04-19T22:31:15.630Z,13.41
2023-04-19T22:33:17.122Z,13.26
2023-04-19T22:35:21.995Z,13.16
2023-04-19T22:37:24.601Z,13.15
2023-04-19T22:39:26.105Z,13.14
2023-04-19T22:41:27.683Z,13.16
2023-04-19T22:43:29.201Z,13.20
2023-04-19T22:45:30.774Z,13.17
2023-04-19T22:47:32.387Z,13.18
2023-04-19T22:49:36.665Z,13.04
2023-04-19T22:51:39.639Z,12.91
2023-04-19T22:53:41.213Z,12.89
2023-04-19T22:55:42.988Z,12.88
2023-04-19T22:57:44.612Z,12.82
2023-04-19T22:59:46.251Z,12.80
2023-04-19T23:01:47.898Z,12.79
2023-04-19T23:03:49.563Z,12.84
2023-04-19T23:05:51.110Z,12.93
2023-04-19T23:07:54.813Z,12.92
2023-04-19T23:09:56.434Z,12.89
2023-04-19T23:11:57.995Z,12.89
2023-04-19T23:13:59.511Z,12.96
2023-04-19T23:16:01.116Z,12.99
2023-04-19T23:18:02.803Z,13.01
2023-04-19T23:20:05.466Z,12.97
2023-04-19T23:22:07.068Z,12.99
2023-04-19T23:24:10.113Z,13.06
2023-04-19T23:26:11.695Z,13.01
2023-04-19T23:28:13.279Z,13.03
2023-04-19T23:30:17.696Z,13.04
2023-04-19T23:32:19.339Z,12.93
2023-04-19T23:34:20.906Z,12.83
2023-04-19T23:36:22.546Z,12.77
2023-04-19T23:38:24.179Z,12.72
2023-04-19T23:40:27.097Z,12.66
2023-04-19T23:42:28.685Z,12.63
2023-04-19T23:44:30.650Z,12.62
2023-04-19T23:46:32.293Z,12.63
2023-04-19T23:48:35.006Z,12.61
2023-04-19T23:50:36.573Z,12.65
2023-04-19T23:52:38.152Z,12.59
2023-04-19T23:54:39.743Z,12.60
2023-04-19T23:56:42.633Z,12.55
2023-04-19T23:58:44.134Z,12.58
